createdAt,value
2023-03-17T00:01:18.651Z,1.57
2023-03-17T00:03:47.724Z,1.00
2023-03-17T00:06:17.387Z,1.20
2023-03-17T00:08:46.302Z,1.30
2023-03-17T00:11:15.149Z,1.10
2023-03-17T00:13:43.653Z,1.07
2023-03-17T00:16:15.599Z,1.00
2023-03-17T00:18:45.686Z,1.20
2023-03-17T00:21:14.928Z,1.10
2023-03-17T00:23:45.867Z,1.30
2023-03-17T00:26:14.258Z,1.27
2023-03-17T00:28:42.876Z,1.27
2023-03-17T00:31:14.485Z,1.17
2023-03-17T00:33:43.258Z,1.47
2023-03-17T00:36:15.574Z,1.30
2023-03-17T00:38:43.768Z,1.30
2023-03-17T00:41:12.629Z,1.30
2023-03-17T00:43:40.814Z,1.10
2023-03-17T00:46:11.760Z,1.10
2023-03-17T00:48:39.948Z,1.20
2023-03-17T00:51:08.091Z,1.30
2023-03-17T00:53:37.621Z,1.20
2023-03-17T00:56:06.390Z,1.33
2023-03-17T00:58:35.878Z,1.20
2023-03-17T01:01:04.110Z,1.27
2023-03-17T01:03:33.000Z,1.30
2023-03-17T01:06:01.815Z,1.13
2023-03-17T01:08:30.348Z,1.13
2023-03-17T01:11:00.449Z,1.10
2023-03-17T01:13:29.174Z,1.30
2023-03-17T01:15:57.658Z,1.03
2023-03-17T01:18:25.975Z,1.27
2023-03-17T01:20:54.607Z,1.33
2023-03-17T01:23:23.009Z,1.40
2023-03-17T01:25:51.181Z,1.37
2023-03-17T01:28:21.585Z,1.20
2023-03-17T01:30:49.960Z,1.30
2023-03-17T01:33:18.352Z,0.93
2023-03-17T01:35:46.763Z,1.40
2023-03-17T01:38:15.894Z,1.40
2023-03-17T01:40:45.270Z,1.30
2023-03-17T01:43:22.421Z,1.43
2023-03-17T01:46:09.361Z,1.23
2023-03-17T01:48:40.260Z,1.60
2023-03-17T01:51:08.835Z,1.20
2023-03-17T01:53:37.463Z,1.33
2023-03-17T01:56:06.101Z,1.37
2023-03-17T01:58:35.676Z,1.20
2023-03-17T02:01:03.878Z,1.20
2023-03-17T02:03:32.137Z,1.47
2023-03-17T02:06:00.552Z,1.50
2023-03-17T02:08:28.764Z,1.30
2023-03-17T02:10:58.219Z,1.37
2023-03-17T02:13:26.993Z,1.50
2023-03-17T02:15:56.974Z,1.37
2023-03-17T02:18:25.176Z,1.40
2023-03-17T02:21:08.197Z,1.20
2023-03-17T02:23:37.726Z,1.17
2023-03-17T02:26:05.992Z,1.40
2023-03-17T02:28:34.994Z,1.50
2023-03-17T02:31:04.613Z,1.20
2023-03-17T02:33:32.990Z,1.40
2023-03-17T02:36:01.424Z,1.40
2023-03-17T02:38:29.627Z,1.33
2023-03-17T02:40:59.181Z,1.30
2023-03-17T02:43:27.356Z,1.77
2023-03-17T02:45:55.556Z,1.40
2023-03-17T02:48:23.802Z,1.60
2023-03-17T02:50:51.999Z,1.47
2023-03-17T02:53:20.235Z,1.50
2023-03-17T02:55:48.375Z,1.30
2023-03-17T02:58:17.874Z,1.23
2023-03-17T03:00:46.054Z,1.00
2023-03-17T03:03:14.217Z,1.20
2023-03-17T03:05:42.717Z,1.20
2023-03-17T03:08:11.073Z,1.33
2023-03-17T03:10:39.286Z,1.70
2023-03-17T03:13:07.877Z,1.57
2023-03-17T03:15:38.478Z,1.40
2023-03-17T03:18:06.891Z,1.20
2023-03-17T03:20:35.507Z,1.40
2023-03-17T03:23:03.894Z,1.50
2023-03-17T03:25:32.109Z,1.40
2023-03-17T03:28:00.750Z,1.47
2023-03-17T03:30:29.150Z,1.30
2023-03-17T03:32:58.876Z,1.50
2023-03-17T03:35:27.086Z,1.47
2023-03-17T03:37:55.248Z,1.60
2023-03-17T03:40:23.635Z,1.37
2023-03-17T03:42:52.061Z,1.40
2023-03-17T03:45:20.573Z,1.60
2023-03-17T03:47:48.752Z,1.30
2023-03-17T03:50:18.058Z,1.60
2023-03-17T03:52:47.577Z,1.40
2023-03-17T03:55:15.973Z,1.40
2023-03-17T03:57:44.432Z,1.57
2023-03-17T04:00:14.450Z,1.50
2023-03-17T04:02:44.981Z,1.60
2023-03-17T04:05:13.681Z,1.33
2023-03-17T04:07:43.021Z,2.00
2023-03-17T04:10:13.481Z,1.57
2023-03-17T04:12:41.851Z,1.20
2023-03-17T04:15:11.225Z,1.67
2023-03-17T04:17:39.462Z,1.50
2023-03-17T04:20:08.252Z,1.27
2023-03-17T04:22:36.435Z,1.63
2023-03-17T04:25:04.707Z,1.53
2023-03-17T04:27:34.267Z,1.50
2023-03-17T04:30:02.586Z,1.50
2023-03-17T04:32:30.813Z,1.50
2023-03-17T04:34:59.207Z,1.50
2023-03-17T04:37:27.453Z,1.47
2023-03-17T04:39:56.164Z,1.40
2023-03-17T04:42:24.341Z,1.63
2023-03-17T04:44:53.858Z,1.50
2023-03-17T04:47:22.057Z,1.60
2023-03-17T04:49:50.683Z,1.57
2023-03-17T04:52:18.839Z,1.47
2023-03-17T04:54:47.082Z,1.40
2023-03-17T04:57:15.278Z,1.60
2023-03-17T04:59:43.436Z,1.50
2023-03-17T05:02:13.053Z,1.30
2023-03-17T05:04:42.040Z,1.33
2023-03-17T05:07:10.426Z,1.43
2023-03-17T05:09:38.813Z,1.37
2023-03-17T05:12:08.537Z,1.50
2023-03-17T05:14:36.663Z,1.60
2023-03-17T05:17:04.992Z,1.50
2023-03-17T05:19:34.514Z,1.77
2023-03-17T05:22:02.688Z,1.47
2023-03-17T05:24:30.926Z,1.60
2023-03-17T05:26:59.091Z,1.50
2023-03-17T05:29:27.734Z,1.60
2023-03-17T05:31:55.886Z,1.83
2023-03-17T05:34:24.065Z,1.57
2023-03-17T05:36:53.566Z,1.50
2023-03-17T05:39:21.731Z,1.70
2023-03-17T05:41:50.359Z,1.30
2023-03-17T05:44:18.664Z,1.43
2023-03-17T05:46:47.621Z,1.50
2023-03-17T05:49:15.819Z,1.60
2023-03-17T05:51:43.990Z,1.60
2023-03-17T05:54:13.737Z,1.70
2023-03-17T05:56:42.748Z,1.60
2023-03-17T05:59:14.816Z,1.50
2023-03-17T06:01:43.316Z,1.47
2023-03-17T06:04:11.522Z,1.63
2023-03-17T06:06:39.903Z,1.80
2023-03-17T06:09:08.372Z,1.77
2023-03-17T06:11:38.095Z,1.40
2023-03-17T06:14:06.271Z,1.50
2023-03-17T06:16:34.544Z,1.77
2023-03-17T06:19:02.797Z,1.60
2023-03-17T06:21:30.944Z,1.40
2023-03-17T06:23:59.144Z,1.73
2023-03-17T06:26:27.330Z,1.70
2023-03-17T06:28:57.457Z,1.40
2023-03-17T06:31:26.468Z,1.67
2023-03-17T06:33:54.770Z,1.50
2023-03-17T06:36:23.032Z,1.90
2023-03-17T06:38:51.660Z,1.97
2023-03-17T06:41:19.832Z,1.70
2023-03-17T06:43:48.079Z,1.97
2023-03-17T06:46:17.695Z,1.67
2023-03-17T06:48:46.058Z,1.70
2023-03-17T06:51:14.218Z,1.70
2023-03-17T06:53:42.373Z,2.10
2023-03-17T06:56:23.553Z,2.00
2023-03-17T06:58:52.564Z,1.80
2023-03-17T07:01:22.432Z,1.70
2023-03-17T07:03:50.761Z,1.80
2023-03-17T07:06:18.988Z,1.67
2023-03-17T07:08:47.476Z,1.50
2023-03-17T07:11:15.730Z,1.90
2023-03-17T07:13:45.241Z,1.70
2023-03-17T07:16:15.157Z,1.70
2023-03-17T07:18:44.956Z,1.53
2023-03-17T07:21:13.137Z,1.83
2023-03-17T07:23:41.314Z,1.83
2023-03-17T07:26:09.734Z,1.70
2023-03-17T07:28:37.912Z,1.70
2023-03-17T07:31:08.801Z,1.70
2023-03-17T07:33:37.134Z,1.50
2023-03-17T07:36:07.503Z,2.00
2023-03-17T07:38:36.136Z,1.83
2023-03-17T07:41:04.681Z,1.67
2023-03-17T07:43:33.329Z,1.90
2023-03-17T07:46:01.588Z,1.90
2023-03-17T07:48:30.797Z,1.87
2023-03-17T07:50:59.235Z,1.67
2023-03-17T07:53:29.675Z,1.87
2023-03-17T07:55:57.852Z,1.80
2023-03-17T07:58:26.530Z,1.67
2023-03-17T08:00:54.889Z,1.60
2023-03-17T08:03:23.192Z,1.60
2023-03-17T08:05:55.293Z,1.80
2023-03-17T08:08:23.510Z,1.90
2023-03-17T08:10:53.752Z,1.93
2023-03-17T08:13:21.983Z,1.63
2023-03-17T08:15:50.496Z,1.87
2023-03-17T08:18:18.767Z,1.90
2023-03-17T08:20:46.964Z,1.90
2023-03-17T08:23:15.477Z,1.70
2023-03-17T08:25:43.685Z,1.87
2023-03-17T08:28:14.168Z,1.60
2023-03-17T08:30:42.477Z,1.90
2023-03-17T08:33:10.991Z,1.73
2023-03-17T08:35:42.117Z,1.50
2023-03-17T08:38:11.104Z,1.90
2023-03-17T08:40:40.098Z,1.60
2023-03-17T08:43:08.653Z,2.10
2023-03-17T08:45:38.179Z,1.80
2023-03-17T08:48:06.534Z,1.70
2023-03-17T08:50:35.404Z,1.90
2023-03-17T08:53:04.220Z,1.77
2023-03-17T08:55:32.050Z,1.80
2023-03-17T08:57:59.892Z,1.97
2023-03-17T09:00:28.255Z,1.90
2023-03-17T09:02:58.322Z,1.77
2023-03-17T09:05:26.704Z,1.70
2023-03-17T09:07:54.619Z,1.80
2023-03-17T09:10:23.558Z,1.60
2023-03-17T09:12:51.738Z,1.93
2023-03-17T09:15:20.072Z,1.73
2023-03-17T09:17:47.959Z,1.77
2023-03-17T09:20:17.834Z,1.73
2023-03-17T09:22:47.680Z,1.80
2023-03-17T09:25:16.087Z,1.50
2023-03-17T09:27:44.592Z,1.80
2023-03-17T09:30:14.054Z,1.43
2023-03-17T09:32:42.790Z,1.80
2023-03-17T09:35:11.117Z,1.70
2023-03-17T09:37:40.892Z,1.60
2023-03-17T09:40:10.387Z,1.70
2023-03-17T09:42:41.865Z,1.70
2023-03-17T09:45:18.368Z,1.60
2023-03-17T09:48:12.822Z,1.70
2023-03-17T09:50:45.729Z,1.70
2023-03-17T09:53:18.709Z,1.70
2023-03-17T09:55:48.956Z,1.57
2023-03-17T09:58:17.223Z,1.50
2023-03-17T10:00:46.365Z,1.87
2023-03-17T10:03:15.021Z,1.30
2023-03-17T10:05:43.256Z,1.80
2023-03-17T10:08:29.617Z,1.63
2023-03-17T10:11:01.717Z,1.50
2023-03-17T10:13:34.360Z,1.40
2023-03-17T10:16:04.108Z,1.50
2023-03-17T10:18:34.456Z,1.80
2023-03-17T10:21:03.645Z,1.60
2023-03-17T10:23:33.265Z,1.87
2023-03-17T10:26:07.974Z,1.63
2023-03-17T10:28:40.043Z,1.57
2023-03-17T10:31:15.478Z,1.97
2023-03-17T10:33:43.738Z,1.43
2023-03-17T10:36:13.199Z,1.47
2023-03-17T10:38:41.368Z,1.30
2023-03-17T10:41:15.353Z,1.50
2023-03-17T10:43:45.740Z,1.73
2023-03-17T10:46:20.009Z,1.67
2023-03-17T10:48:52.264Z,1.50
2023-03-17T10:51:23.271Z,1.50
2023-03-17T10:53:54.354Z,1.60
2023-03-17T10:56:28.048Z,1.63
2023-03-17T10:58:56.926Z,1.70
2023-03-17T11:01:29.698Z,1.70
2023-03-17T11:04:00.382Z,2.20
2023-03-17T11:06:34.240Z,1.60
2023-03-17T11:09:09.252Z,1.50
2023-03-17T11:11:44.318Z,1.50
2023-03-17T11:14:14.209Z,1.60
2023-03-17T11:16:44.105Z,1.50
2023-03-17T11:19:15.656Z,1.53
2023-03-17T11:21:47.734Z,1.60
2023-03-17T11:24:17.635Z,1.87
2023-03-17T11:26:50.997Z,1.50
2023-03-17T11:29:23.790Z,1.60
2023-03-17T11:31:57.720Z,1.50
2023-03-17T11:34:29.727Z,1.60
2023-03-17T11:37:02.008Z,1.70
2023-03-17T11:39:36.294Z,1.63
2023-03-17T11:42:13.257Z,1.40
2023-03-17T11:44:59.064Z,1.37
2023-03-17T11:47:32.868Z,1.43
2023-03-17T11:50:04.631Z,1.50
2023-03-17T11:52:38.678Z,1.60
2023-03-17T11:55:11.694Z,1.50
2023-03-17T11:57:43.826Z,1.80
2023-03-17T12:00:18.805Z,1.83
2023-03-17T12:02:50.763Z,1.70
2023-03-17T12:05:22.737Z,1.40
2023-03-17T12:07:54.736Z,1.50
2023-03-17T12:10:25.560Z,1.60
2023-03-17T12:12:56.906Z,1.60
2023-03-17T12:15:30.309Z,1.17
2023-03-17T12:17:59.305Z,1.57
2023-03-17T12:20:31.605Z,1.50
2023-03-17T12:23:04.261Z,1.40
2023-03-17T12:25:33.763Z,1.57
2023-03-17T12:28:06.074Z,1.57
2023-03-17T12:30:37.115Z,1.33
2023-03-17T12:33:15.802Z,1.40
2023-03-17T12:35:44.000Z,1.47
2023-03-17T12:38:14.209Z,1.60
2023-03-17T12:40:50.329Z,1.30
2023-03-17T12:43:31.521Z,1.30
2023-03-17T12:46:08.639Z,1.40
2023-03-17T12:48:48.328Z,1.50
2023-03-17T12:51:33.053Z,1.33
2023-03-17T12:54:01.509Z,1.50
2023-03-17T12:56:31.528Z,1.50
2023-03-17T12:59:06.681Z,1.80
2023-03-17T13:01:35.990Z,1.37
2023-03-17T13:04:07.688Z,1.50
2023-03-17T13:06:40.516Z,1.60
2023-03-17T13:09:30.259Z,1.80
2023-03-17T13:11:59.620Z,1.50
2023-03-17T13:14:39.533Z,1.23
2023-03-17T13:17:28.560Z,1.30
2023-03-17T13:19:57.424Z,1.40
2023-03-17T13:22:26.833Z,1.70
2023-03-17T13:24:55.230Z,1.73
2023-03-17T13:27:42.366Z,1.60
2023-03-17T13:30:29.615Z,1.50
2023-03-17T13:33:04.804Z,1.43
2023-03-17T13:35:40.973Z,1.30
2023-03-17T13:38:35.961Z,1.50
2023-03-17T13:41:18.721Z,1.30
2023-03-17T13:43:53.676Z,1.50
2023-03-17T13:46:24.280Z,1.67
2023-03-17T13:48:54.607Z,1.70
2023-03-17T13:51:24.240Z,1.80
2023-03-17T13:53:55.569Z,1.40
2023-03-17T13:56:25.168Z,1.60
2023-03-17T13:58:54.889Z,1.50
2023-03-17T14:01:24.657Z,2.03
2023-03-17T14:03:56.633Z,1.80
2023-03-17T14:06:28.015Z,1.80
2023-03-17T14:08:59.009Z,2.13
2023-03-17T14:11:33.210Z,1.70
2023-03-17T14:14:10.779Z,1.67
2023-03-17T14:16:45.291Z,1.80
2023-03-17T14:19:19.462Z,1.80
2023-03-17T14:21:47.658Z,1.70
2023-03-17T14:24:20.586Z,1.83
2023-03-17T14:26:50.116Z,1.37
2023-03-17T14:29:19.459Z,1.80
2023-03-17T14:31:52.830Z,1.40
2023-03-17T14:34:23.881Z,1.63
2023-03-17T14:36:53.125Z,1.83
2023-03-17T14:39:25.544Z,1.77
2023-03-17T14:42:01.584Z,1.40
2023-03-17T14:44:30.149Z,1.50
2023-03-17T14:47:05.350Z,1.60
2023-03-17T14:49:35.246Z,1.60
2023-03-17T14:52:03.479Z,1.73
2023-03-17T14:54:34.135Z,1.27
2023-03-17T14:57:04.887Z,1.50
2023-03-17T14:59:35.558Z,1.50
2023-03-17T15:02:04.315Z,1.67
2023-03-17T15:04:33.270Z,1.40
2023-03-17T15:07:03.681Z,1.47
2023-03-17T15:09:36.192Z,1.50
2023-03-17T15:12:06.801Z,1.40
2023-03-17T15:14:35.715Z,1.50
2023-03-17T15:17:04.675Z,1.60
2023-03-17T15:19:40.536Z,1.93
2023-03-17T15:22:23.753Z,1.83
2023-03-17T15:24:53.668Z,1.67
2023-03-17T15:27:21.835Z,1.90
2023-03-17T15:29:50.015Z,1.53
2023-03-17T15:32:19.998Z,1.60
2023-03-17T15:34:48.408Z,1.80
2023-03-17T15:37:17.524Z,1.60
2023-03-17T15:39:47.109Z,1.70
2023-03-17T15:42:15.405Z,1.70
2023-03-17T15:44:43.709Z,1.73
2023-03-17T15:47:13.879Z,1.90
2023-03-17T15:49:42.089Z,2.10
2023-03-17T15:52:15.908Z,1.47
2023-03-17T15:54:44.316Z,1.53
2023-03-17T15:57:14.109Z,1.80
2023-03-17T15:59:42.469Z,1.70
2023-03-17T16:02:23.498Z,1.93
2023-03-17T16:04:51.774Z,1.60
2023-03-17T16:07:21.182Z,1.70
2023-03-17T16:09:49.380Z,1.90
2023-03-17T16:12:19.296Z,1.50
2023-03-17T16:14:47.893Z,1.60
2023-03-17T16:17:19.025Z,1.70
2023-03-17T16:19:47.856Z,1.50
2023-03-17T16:22:35.097Z,1.67
2023-03-17T16:25:03.665Z,2.03
2023-03-17T16:27:33.191Z,1.83
2023-03-17T16:30:01.360Z,1.83
2023-03-17T16:32:29.572Z,1.70
2023-03-17T16:34:58.066Z,2.03
2023-03-17T16:37:26.241Z,1.87
2023-03-17T16:39:54.404Z,1.50
2023-03-17T16:42:23.740Z,2.00
2023-03-17T16:44:53.339Z,1.77
2023-03-17T16:47:21.546Z,1.87
2023-03-17T16:49:49.845Z,1.97
2023-03-17T16:52:18.054Z,2.50
2023-03-17T16:54:46.241Z,1.80
2023-03-17T16:57:14.423Z,1.50
2023-03-17T16:59:42.609Z,1.50
2023-03-17T17:02:17.154Z,2.00
2023-03-17T17:04:45.329Z,1.90
2023-03-17T17:07:13.526Z,1.80
2023-03-17T17:09:41.678Z,1.80
2023-03-17T17:12:10.272Z,1.50
2023-03-17T17:14:38.496Z,2.53
2023-03-17T17:17:06.740Z,2.30
2023-03-17T17:19:36.289Z,1.87
2023-03-17T17:22:04.451Z,2.07
2023-03-17T17:24:32.625Z,2.00
2023-03-17T17:27:00.798Z,1.70
2023-03-17T17:29:31.201Z,1.90
2023-03-17T17:32:00.486Z,2.13
2023-03-17T17:34:28.681Z,1.87
2023-03-17T17:36:58.340Z,1.80
2023-03-17T17:39:26.590Z,1.90
2023-03-17T17:41:54.726Z,1.80
2023-03-17T17:44:22.900Z,2.00
2023-03-17T17:46:51.434Z,2.10
2023-03-17T17:49:19.624Z,1.83
2023-03-17T17:51:47.812Z,1.63
2023-03-17T17:54:17.353Z,1.73
2023-03-17T17:56:46.872Z,2.03
2023-03-17T17:59:15.076Z,1.90
2023-03-17T18:01:43.247Z,1.73
2023-03-17T18:04:12.675Z,1.80
2023-03-17T18:06:40.868Z,1.90
2023-03-17T18:09:09.486Z,1.93
2023-03-17T18:11:40.300Z,1.63
2023-03-17T18:14:09.508Z,1.70
2023-03-17T18:16:38.345Z,1.73
2023-03-17T18:19:07.513Z,1.90
2023-03-17T18:21:36.701Z,1.83
2023-03-17T18:24:05.355Z,1.60
2023-03-17T18:26:33.987Z,1.87
2023-03-17T18:29:03.567Z,1.70
2023-03-17T18:31:33.953Z,2.20
2023-03-17T18:34:07.218Z,2.07
2023-03-17T18:36:35.618Z,2.23
2023-03-17T18:39:04.086Z,2.20
2023-03-17T18:41:33.308Z,2.43
2023-03-17T18:44:02.416Z,2.00
2023-03-17T18:46:32.778Z,2.43
2023-03-17T18:49:00.984Z,2.20
2023-03-17T18:51:29.139Z,1.90
2023-03-17T18:53:57.325Z,2.10
2023-03-17T18:56:28.961Z,2.30
2023-03-17T18:58:57.815Z,2.47
2023-03-17T19:01:26.413Z,2.40
2023-03-17T19:03:56.155Z,2.10
2023-03-17T19:06:25.073Z,2.50
2023-03-17T19:08:53.256Z,2.13
2023-03-17T19:11:22.129Z,2.30
2023-03-17T19:13:51.411Z,2.17
2023-03-17T19:16:20.018Z,1.90
2023-03-17T19:18:48.299Z,1.90
2023-03-17T19:21:17.823Z,2.00
2023-03-17T19:23:46.006Z,1.90
2023-03-17T19:26:14.176Z,2.00
2023-03-17T19:28:42.424Z,2.27
2023-03-17T19:31:10.716Z,2.00
2023-03-17T19:33:38.922Z,1.70
2023-03-17T19:36:08.294Z,1.93
2023-03-17T19:38:37.840Z,1.90
2023-03-17T19:41:06.729Z,1.90
2023-03-17T19:43:40.821Z,2.40
2023-03-17T19:46:10.022Z,2.27
2023-03-17T19:48:38.249Z,1.93
2023-03-17T19:51:06.687Z,1.97
2023-03-17T19:53:34.900Z,2.03
2023-03-17T19:56:05.273Z,2.30
2023-03-17T19:58:33.578Z,2.10
2023-03-17T20:01:03.602Z,2.37
2023-03-17T20:03:33.438Z,2.30
2023-03-17T20:06:05.869Z,1.93
2023-03-17T20:08:34.050Z,1.90
2023-03-17T20:11:02.227Z,2.30
2023-03-17T20:13:31.757Z,2.17
2023-03-17T20:16:01.580Z,2.27
2023-03-17T20:18:29.865Z,2.00
2023-03-17T20:21:00.058Z,2.23
2023-03-17T20:23:28.522Z,2.17
2023-03-17T20:25:57.041Z,2.03
2023-03-17T20:28:25.341Z,2.30
2023-03-17T20:30:59.455Z,2.20
2023-03-17T20:33:27.714Z,2.20
2023-03-17T20:35:56.522Z,2.13
2023-03-17T20:38:25.584Z,2.20
2023-03-17T20:40:53.763Z,2.10
2023-03-17T20:43:22.212Z,1.87
2023-03-17T20:45:53.087Z,2.00
2023-03-17T20:48:23.075Z,2.33
2023-03-17T20:50:51.285Z,2.90
2023-03-17T20:53:19.468Z,2.40
2023-03-17T20:55:47.624Z,2.00
2023-03-17T20:58:15.790Z,2.20
2023-03-17T21:00:44.559Z,2.70
2023-03-17T21:03:12.807Z,2.17
2023-03-17T21:05:42.593Z,2.67
2023-03-17T21:08:11.422Z,2.47
2023-03-17T21:10:39.634Z,2.90
2023-03-17T21:13:07.818Z,2.57
2023-03-17T21:15:36.050Z,2.23
2023-03-17T21:18:04.261Z,2.33
2023-03-17T21:20:32.794Z,2.23
2023-03-17T21:23:04.497Z,2.33
2023-03-17T21:25:33.026Z,2.17
2023-03-17T21:28:01.476Z,2.30
2023-03-17T21:30:29.986Z,2.43
2023-03-17T21:33:00.089Z,2.27
2023-03-17T21:35:30.342Z,2.67
2023-03-17T21:37:58.744Z,2.10
2023-03-17T21:40:30.206Z,2.27
2023-03-17T21:43:00.667Z,2.20
2023-03-17T21:45:29.244Z,2.53
2023-03-17T21:47:57.462Z,2.13
2023-03-17T21:50:25.694Z,2.47
2023-03-17T21:52:54.092Z,2.40
2023-03-17T21:55:22.329Z,2.40
2023-03-17T21:57:51.894Z,2.63
2023-03-17T22:00:20.650Z,2.60
2023-03-17T22:02:49.884Z,2.67
2023-03-17T22:05:18.507Z,2.57
2023-03-17T22:07:47.025Z,2.70
2023-03-17T22:10:15.202Z,2.63
2023-03-17T22:12:43.360Z,2.53
2023-03-17T22:15:13.464Z,3.47
2023-03-17T22:17:41.917Z,2.40
2023-03-17T22:20:10.710Z,2.47
2023-03-17T22:22:38.928Z,2.30
2023-03-17T22:25:07.674Z,2.60
2023-03-17T22:27:36.103Z,2.23
2023-03-17T22:30:04.304Z,2.90
2023-03-17T22:32:33.926Z,2.50
2023-03-17T22:35:02.430Z,2.70
2023-03-17T22:37:31.165Z,2.60
2023-03-17T22:40:02.438Z,2.17
2023-03-17T22:42:31.115Z,2.47
2023-03-17T22:44:59.331Z,2.53
2023-03-17T22:47:27.489Z,2.10
2023-03-17T22:49:57.020Z,2.97
2023-03-17T22:52:25.459Z,2.73
2023-03-17T22:54:53.947Z,2.20
2023-03-17T22:57:22.167Z,2.60
2023-03-17T22:59:52.133Z,2.40
2023-03-17T23:02:20.724Z,2.70
2023-03-17T23:04:49.074Z,2.40
2023-03-17T23:07:18.573Z,2.60
2023-03-17T23:09:47.054Z,2.93
2023-03-17T23:12:15.663Z,2.60
2023-03-17T23:14:43.926Z,2.70
2023-03-17T23:17:13.155Z,2.57
2023-03-17T23:19:41.369Z,2.87
2023-03-17T23:22:09.612Z,3.03
2023-03-17T23:24:39.146Z,3.10
2023-03-17T23:27:07.882Z,3.30
2023-03-17T23:29:36.046Z,2.67
2023-03-17T23:32:04.241Z,2.90
2023-03-17T23:34:32.376Z,3.27
2023-03-17T23:37:00.874Z,2.83
2023-03-17T23:39:29.199Z,2.93
2023-03-17T23:41:58.815Z,2.83
2023-03-17T23:44:27.080Z,2.87
2023-03-17T23:46:55.248Z,3.70
2023-03-17T23:49:23.587Z,2.93
2023-03-17T23:51:52.113Z,2.90
2023-03-17T23:54:20.377Z,2.60
2023-03-17T23:56:48.546Z,2.67
2023-03-17T23:59:18.058Z,2.70
